Aviation Digital Data Service (ADDS)

Output produced by METARs form (1441 UTC 10 December 2016)
found at http://aviationweather.gov/adds/metars/
 
KDET 101120Z 1012/1112 26008KT P6SM -SHSN SCT025 OVC050 
     FM101500 26011KT 6SM -SHSN BKN035 BKN050 
     TEMPO 1015/1018 2SM -SHSN BKN025 
     FM101900 25011KT P6SM -SHSN BKN050 
     FM110000 25008KT P6SM SCT035 OVC120 
     FM110600 22005KT 3SM -SN BKN028 OVC040